createdAt,value
2017-06-27T07:08:03.539Z,1007.3
2017-06-27T07:09:04.901Z,1007.2
2017-06-27T07:13:06.557Z,1007.2
2017-06-27T07:14:07.928Z,1007.2
2017-06-27T07:18:09.596Z,1007.2
2017-06-27T07:19:10.969Z,1007.2
2017-06-27T07:23:13.914Z,1007.2
2017-06-27T07:24:14.755Z,1007.2
2017-06-27T07:27:00.226Z,1007.2
2017-06-27T07:28:02.229Z,1007.2
2017-06-27T07:32:04.100Z,1007.2
2017-06-27T07:33:05.464Z,1007.2
2017-06-27T07:34:27.575Z,1007.2
2017-06-27T07:35:28.950Z,1007.2
2017-06-27T07:39:30.959Z,1007.1
2017-06-27T07:40:33.044Z,1007.2
2017-06-27T07:44:35.000Z,1007.2
2017-06-27T07:45:36.370Z,1007.2
2017-06-27T07:49:38.572Z,1007.2
2017-06-27T07:50:39.948Z,1007.2
2017-06-27T07:54:02.087Z,1007.2
2017-06-27T07:55:03.455Z,1007.3
2017-06-27T07:56:04.837Z,1007.3
2017-06-27T07:57:06.229Z,1007.3
2017-06-27T07:58:09.319Z,1007.3
2017-06-27T07:59:10.694Z,1007.3
2017-06-27T08:00:12.069Z,1007.3
2017-06-27T08:01:13.461Z,1007.3
2017-06-27T08:02:14.833Z,1007.3
2017-06-27T08:03:16.212Z,1007.3
2017-06-27T08:04:18.301Z,1007.3
2017-06-27T08:05:20.453Z,1007.3
2017-06-27T08:06:21.896Z,1007.3
2017-06-27T08:07:23.272Z,1007.2
2017-06-27T08:08:24.643Z,1007.2
2017-06-27T08:09:26.811Z,1007.2
2017-06-27T08:10:28.184Z,1007.2
2017-06-27T08:11:29.559Z,1007.2
2017-06-27T08:12:31.801Z,1007.2
2017-06-27T08:13:33.824Z,1007.2
2017-06-27T08:14:35.201Z,1007.1
2017-06-27T08:15:36.642Z,1007.1
2017-06-27T08:16:38.046Z,1007.1
2017-06-27T08:17:39.455Z,1007.1
2017-06-27T08:18:40.827Z,1007.1
2017-06-27T08:19:42.197Z,1007.1
2017-06-27T08:20:44.281Z,1007.1
2017-06-27T08:21:45.677Z,1007.1
2017-06-27T08:22:47.033Z,1007.1
2017-06-27T08:23:48.412Z,1007.1
2017-06-27T08:24:49.784Z,1007.1
2017-06-27T08:25:51.160Z,1007.0
2017-06-27T08:26:52.534Z,1007.0
2017-06-27T08:27:53.906Z,1007.1
2017-06-27T08:28:55.282Z,1007.0
2017-06-27T08:29:56.660Z,1007.0
2017-06-27T08:30:58.026Z,1007.0
2017-06-27T08:31:59.402Z,1007.0
2017-06-27T08:33:00.777Z,1007.0
2017-06-27T08:34:02.892Z,1007.0
2017-06-27T08:35:04.270Z,1007.0
2017-06-27T08:36:05.639Z,1007.0
2017-06-27T08:37:07.011Z,1007.0
2017-06-27T08:38:08.385Z,1007.0
2017-06-27T08:39:09.757Z,1007.0
2017-06-27T08:40:11.133Z,1007.0
2017-06-27T08:41:13.303Z,1007.0
2017-06-27T08:42:14.675Z,1007.0
2017-06-27T08:43:16.572Z,1007.0
2017-06-27T08:44:17.961Z,1007.0
2017-06-27T08:45:19.995Z,1006.9
2017-06-27T08:46:22.147Z,1006.9
2017-06-27T08:47:22.697Z,1006.9
2017-06-27T08:48:25.581Z,1006.9
2017-06-27T08:49:26.957Z,1007.0
2017-06-27T08:50:28.995Z,1006.9
2017-06-27T08:51:30.374Z,1006.9
2017-06-27T08:52:31.743Z,1006.9
2017-06-27T08:53:35.802Z,1006.8
2017-06-27T08:54:37.180Z,1006.8
2017-06-27T08:55:38.550Z,1006.9
2017-06-27T08:56:40.577Z,1006.8
2017-06-27T08:57:41.954Z,1006.8
2017-06-27T08:58:43.337Z,1006.9
2017-06-27T08:59:44.721Z,1006.8
2017-06-27T09:00:46.098Z,1006.8
2017-06-27T09:01:47.468Z,1006.9
2017-06-27T09:02:48.859Z,1006.8
2017-06-27T09:03:50.235Z,1006.8
2017-06-27T09:04:51.617Z,1006.8
2017-06-27T09:05:52.997Z,1006.8
2017-06-27T09:06:55.158Z,1006.7
2017-06-27T09:07:56.536Z,1006.7
2017-06-27T09:08:57.909Z,1006.7
2017-06-27T09:09:59.286Z,1006.7
2017-06-27T09:11:00.656Z,1006.6
2017-06-27T09:12:02.754Z,1006.6
2017-06-27T09:13:04.126Z,1006.6
2017-06-27T09:14:05.498Z,1006.6
2017-06-27T09:15:06.881Z,1006.5
2017-06-27T09:16:08.251Z,1006.5
2017-06-27T09:17:09.626Z,1006.5
2017-06-27T09:18:11.005Z,1006.6
2017-06-27T09:19:12.382Z,1006.6
2017-06-27T09:20:13.767Z,1006.6
2017-06-27T09:21:16.687Z,1006.6
2017-06-27T09:22:19.565Z,1006.6
2017-06-27T09:23:20.939Z,1006.6
2017-06-27T09:24:22.316Z,1006.6
2017-06-27T09:25:23.689Z,1006.5
2017-06-27T09:26:25.062Z,1006.6
2017-06-27T09:27:26.439Z,1006.6
2017-06-27T09:28:27.813Z,1006.6
2017-06-27T09:29:29.868Z,1006.6
2017-06-27T09:30:31.262Z,1006.5
2017-06-27T09:31:32.637Z,1006.5
2017-06-27T09:32:34.015Z,1006.5
2017-06-27T09:33:35.389Z,1006.5
2017-06-27T09:34:36.762Z,1006.5
2017-06-27T09:35:38.165Z,1006.5
2017-06-27T09:36:39.540Z,1006.5
2017-06-27T09:37:40.916Z,1006.5
2017-06-27T09:38:42.289Z,1006.5
2017-06-27T09:39:43.671Z,1006.5
2017-06-27T09:40:45.051Z,1006.4
2017-06-27T09:41:46.423Z,1006.4
2017-06-27T09:42:47.806Z,1006.5
2017-06-27T09:43:49.189Z,1006.4
2017-06-27T09:44:50.564Z,1006.5
2017-06-27T09:45:51.933Z,1006.4
2017-06-27T09:46:53.972Z,1006.4
2017-06-27T09:47:54.652Z,1006.4
2017-06-27T09:48:56.027Z,1006.4
2017-06-27T09:49:57.410Z,1006.4
2017-06-27T09:50:58.781Z,1006.4
2017-06-27T09:52:00.972Z,1006.4
2017-06-27T09:53:02.975Z,1006.3
2017-06-27T09:54:03.727Z,1006.3
2017-06-27T09:55:05.161Z,1006.3
2017-06-27T09:56:06.540Z,1006.3
2017-06-27T09:57:07.909Z,1006.3
2017-06-27T09:58:10.253Z,1006.3
2017-06-27T09:59:11.746Z,1006.3
2017-06-27T10:00:13.125Z,1006.3
2017-06-27T10:01:14.502Z,1006.3
2017-06-27T10:02:15.882Z,1006.3
2017-06-27T10:03:17.266Z,1006.3
2017-06-27T10:04:18.640Z,1006.3
2017-06-27T10:05:20.050Z,1006.3
2017-06-27T10:06:21.787Z,1006.3
2017-06-27T10:07:25.169Z,1006.3
2017-06-27T10:08:26.547Z,1006.3
2017-06-27T10:09:27.917Z,1006.3
2017-06-27T10:10:29.301Z,1006.3
2017-06-27T10:11:32.076Z,1006.3
2017-06-27T10:12:33.456Z,1006.3
2017-06-27T10:13:36.416Z,1006.4
2017-06-27T10:14:41.668Z,1006.3
2017-06-27T10:15:48.534Z,1006.3
2017-06-27T10:16:50.516Z,1006.3
2017-06-27T10:17:52.502Z,1006.2
2017-06-27T10:18:54.477Z,1006.3
2017-06-27T10:19:58.683Z,1006.3
2017-06-27T10:21:01.686Z,1006.2
2017-06-27T10:22:04.679Z,1006.2
2017-06-27T10:23:07.667Z,1006.2
2017-06-27T10:24:10.658Z,1006.2
2017-06-27T10:25:13.639Z,1006.2
2017-06-27T10:26:15.562Z,1006.2
2017-06-27T10:27:18.692Z,1006.2
2017-06-27T10:28:23.248Z,1006.2
2017-06-27T10:29:24.624Z,1006.2
2017-06-27T10:30:25.996Z,1006.1
2017-06-27T10:31:27.374Z,1006.2
2017-06-27T10:32:28.753Z,1006.1
2017-06-27T10:33:30.117Z,1006.1
2017-06-27T10:34:31.498Z,1006.1
2017-06-27T10:35:32.874Z,1006.1
2017-06-27T10:36:34.249Z,1006.1
2017-06-27T10:37:35.615Z,1006.1
2017-06-27T10:38:36.992Z,1006.1
2017-06-27T10:39:38.369Z,1006.1
2017-06-27T10:40:40.240Z,1006.0
2017-06-27T10:41:41.613Z,1006.0
2017-06-27T10:42:42.984Z,1006.0
2017-06-27T10:43:44.369Z,1006.0
2017-06-27T10:44:45.753Z,1006.0
2017-06-27T10:45:47.127Z,1006.0
2017-06-27T10:46:48.502Z,1006.0
2017-06-27T10:47:49.884Z,1006.0
2017-06-27T10:48:52.140Z,1005.9
2017-06-27T10:49:53.511Z,1005.9
2017-06-27T10:50:54.889Z,1005.9
2017-06-27T10:51:56.264Z,1005.9
2017-06-27T10:52:57.639Z,1005.9
2017-06-27T10:53:59.018Z,1005.9
2017-06-27T10:55:00.393Z,1005.9
2017-06-27T10:56:01.763Z,1005.9
2017-06-27T10:57:03.144Z,1005.9
2017-06-27T10:58:04.518Z,1005.9
2017-06-27T10:59:06.588Z,1005.9
2017-06-27T11:00:07.224Z,1005.9
2017-06-27T11:01:08.597Z,1005.9
2017-06-27T11:02:09.976Z,1005.9
2017-06-27T11:03:11.351Z,1005.9
2017-06-27T11:04:14.189Z,1005.9
2017-06-27T11:05:15.566Z,1005.9
2017-06-27T11:06:16.939Z,1005.8
2017-06-27T11:07:19.226Z,1005.8
2017-06-27T11:08:20.607Z,1005.8
2017-06-27T11:09:21.975Z,1005.8
2017-06-27T11:10:23.354Z,1005.8
2017-06-27T11:11:24.741Z,1005.7
2017-06-27T11:12:26.134Z,1005.7
2017-06-27T11:13:27.513Z,1005.8
2017-06-27T11:14:28.892Z,1005.7
2017-06-27T11:15:30.276Z,1005.7
2017-06-27T11:16:31.652Z,1005.8
2017-06-27T11:17:33.030Z,1005.7
2017-06-27T11:18:34.406Z,1005.7
2017-06-27T11:19:35.783Z,1005.7
2017-06-27T11:20:37.163Z,1005.7
2017-06-27T11:21:38.535Z,1005.7
2017-06-27T11:22:39.918Z,1005.7
2017-06-27T11:23:41.304Z,1005.7
2017-06-27T11:24:45.726Z,1005.7
2017-06-27T11:25:47.102Z,1005.7
2017-06-27T11:26:48.487Z,1005.7
2017-06-27T11:27:49.868Z,1005.7
2017-06-27T11:28:51.250Z,1005.7
2017-06-27T11:29:52.622Z,1005.7
2017-06-27T11:30:54.000Z,1005.6
2017-06-27T11:31:55.374Z,1005.6
2017-06-27T11:32:56.750Z,1005.6
2017-06-27T11:33:58.125Z,1005.6
2017-06-27T11:34:59.500Z,1005.6
2017-06-27T11:36:00.882Z,1005.6
2017-06-27T11:37:02.261Z,1005.5
2017-06-27T11:38:03.637Z,1005.5
2017-06-27T11:39:05.022Z,1005.5
2017-06-27T11:40:06.397Z,1005.5
2017-06-27T11:41:07.866Z,1005.5
2017-06-27T11:42:09.265Z,1005.5
2017-06-27T11:43:10.636Z,1005.6
2017-06-27T11:44:12.012Z,1005.5
2017-06-27T11:45:13.433Z,1005.5
2017-06-27T11:46:14.822Z,1005.5
2017-06-27T11:47:16.201Z,1005.4
2017-06-27T11:48:17.584Z,1005.5
2017-06-27T11:49:18.962Z,1005.4
2017-06-27T11:50:20.337Z,1005.5
2017-06-27T11:51:21.716Z,1005.4
2017-06-27T11:52:23.101Z,1005.5
2017-06-27T11:53:28.315Z,1005.4
2017-06-27T11:54:32.859Z,1005.4
2017-06-27T11:55:35.548Z,1005.4
2017-06-27T11:56:36.954Z,1005.4
2017-06-27T11:57:44.543Z,1005.4
2017-06-27T11:58:45.917Z,1005.4
2017-06-27T11:59:47.293Z,1005.4
2017-06-27T12:00:48.682Z,1005.4
2017-06-27T12:01:50.069Z,1005.4
2017-06-27T12:02:52.034Z,1005.4
2017-06-27T12:03:53.423Z,1005.4
2017-06-27T12:04:54.803Z,1005.4
2017-06-27T12:05:56.187Z,1005.4
2017-06-27T12:06:57.594Z,1005.4
2017-06-27T12:07:59.045Z,1005.3
2017-06-27T12:09:00.436Z,1005.4
2017-06-27T12:10:01.815Z,1005.3
2017-06-27T12:11:03.196Z,1005.3
2017-06-27T12:12:05.973Z,1005.3
2017-06-27T12:13:07.353Z,1005.3
2017-06-27T12:14:09.444Z,1005.3
2017-06-27T12:15:11.673Z,1005.3
2017-06-27T12:16:13.049Z,1005.3
2017-06-27T12:17:15.152Z,1005.3
2017-06-27T12:18:16.532Z,1005.3
2017-06-27T12:19:17.937Z,1005.3
2017-06-27T12:20:20.176Z,1005.3
2017-06-27T12:21:21.552Z,1005.3
2017-06-27T12:22:22.928Z,1005.2
2017-06-27T12:23:24.311Z,1005.2
2017-06-27T12:24:25.689Z,1005.2
2017-06-27T12:25:27.057Z,1005.2
2017-06-27T12:26:28.432Z,1005.2
2017-06-27T12:27:29.814Z,1005.2
2017-06-27T12:28:31.190Z,1005.2
2017-06-27T12:29:32.563Z,1005.1
2017-06-27T12:30:33.942Z,1005.1
2017-06-27T12:31:35.316Z,1005.1
2017-06-27T12:32:36.698Z,1005.1
2017-06-27T12:33:38.083Z,1005.1
2017-06-27T12:34:39.449Z,1005.1
2017-06-27T12:35:40.818Z,1005.1
2017-06-27T12:36:42.197Z,1005.1
2017-06-27T12:37:43.908Z,1005.1
2017-06-27T12:38:45.288Z,1005.1
2017-06-27T12:39:46.660Z,1005.1
2017-06-27T12:40:48.040Z,1005.1
2017-06-27T12:41:49.420Z,1005.1
2017-06-27T12:42:50.793Z,1005.2
2017-06-27T12:43:52.167Z,1005.1
2017-06-27T12:44:53.543Z,1005.1
2017-06-27T12:45:54.917Z,1005.1
2017-06-27T12:46:56.295Z,1005.1
2017-06-27T12:47:58.386Z,1005.1
2017-06-27T12:48:59.759Z,1005.1
2017-06-27T12:50:01.738Z,1005.1
2017-06-27T12:51:03.135Z,1005.1
2017-06-27T12:52:04.509Z,1005.1
2017-06-27T12:53:05.885Z,1005.0
2017-06-27T12:54:07.260Z,1005.1
2017-06-27T12:55:08.644Z,1005.1
2017-06-27T12:56:10.032Z,1005.0
2017-06-27T12:57:11.430Z,1005.0
2017-06-27T12:58:12.789Z,1005.0
2017-06-27T12:59:14.166Z,1005.0
2017-06-27T13:00:15.550Z,1005.0
2017-06-27T13:01:16.915Z,1005.0
2017-06-27T13:02:18.289Z,1005.0
2017-06-27T13:03:19.678Z,1005.0
2017-06-27T13:04:21.046Z,1005.0
2017-06-27T13:05:22.422Z,1005.0
2017-06-27T13:06:23.800Z,1005.0
2017-06-27T13:07:25.840Z,1005.0
2017-06-27T13:08:27.226Z,1005.0
2017-06-27T13:09:28.602Z,1005.0
2017-06-27T13:10:29.973Z,1005.0
2017-06-27T13:11:31.377Z,1005.0
2017-06-27T13:12:32.732Z,1005.0
2017-06-27T13:13:34.948Z,1005.0
2017-06-27T13:14:36.323Z,1005.0
2017-06-27T13:15:37.699Z,1005.0
2017-06-27T13:16:39.073Z,1004.9
2017-06-27T13:17:40.449Z,1004.9
2017-06-27T13:18:41.830Z,1004.9
2017-06-27T13:19:43.205Z,1004.9
2017-06-27T13:20:44.578Z,1004.9
2017-06-27T13:21:45.958Z,1004.9
2017-06-27T13:22:47.333Z,1004.9
2017-06-27T13:23:48.711Z,1004.9
2017-06-27T13:24:50.083Z,1004.9
2017-06-27T13:25:51.460Z,1004.8
2017-06-27T13:26:52.835Z,1004.9
2017-06-27T13:27:54.214Z,1004.8
2017-06-27T13:28:55.587Z,1004.9
2017-06-27T13:29:56.962Z,1004.8
2017-06-27T13:30:58.349Z,1004.7
2017-06-27T13:32:00.535Z,1004.7
2017-06-27T13:33:01.915Z,1004.7
2017-06-27T13:34:03.286Z,1004.7
2017-06-27T13:35:04.660Z,1004.7
2017-06-27T13:36:06.034Z,1004.6
2017-06-27T13:37:10.499Z,1004.6
2017-06-27T13:38:11.899Z,1004.6
2017-06-27T13:39:13.277Z,1004.6
2017-06-27T13:40:14.643Z,1004.5
2017-06-27T13:41:17.330Z,1004.5
2017-06-27T13:42:18.722Z,1004.5
2017-06-27T13:43:20.101Z,1004.5
2017-06-27T13:44:21.480Z,1004.4
2017-06-27T13:45:22.859Z,1004.4
2017-06-27T13:46:24.237Z,1004.4
2017-06-27T13:47:25.613Z,1004.4
2017-06-27T13:48:27.027Z,1004.3
2017-06-27T13:49:28.407Z,1004.3
2017-06-27T13:50:29.789Z,1004.3
2017-06-27T13:51:32.056Z,1004.3
2017-06-27T13:52:33.457Z,1004.3
2017-06-27T13:53:34.836Z,1004.3
2017-06-27T13:54:36.209Z,1004.3
2017-06-27T13:55:37.598Z,1004.2
2017-06-27T13:56:38.974Z,1004.3
2017-06-27T13:57:40.343Z,1004.2
2017-06-27T13:58:41.717Z,1004.2
2017-06-27T13:59:43.094Z,1004.2
2017-06-27T14:00:44.473Z,1004.2
2017-06-27T14:01:45.850Z,1004.1
2017-06-27T14:02:47.227Z,1004.1
2017-06-27T14:03:48.599Z,1004.1
2017-06-27T14:04:49.976Z,1004.2
2017-06-27T14:05:51.356Z,1004.1
2017-06-27T14:06:52.735Z,1004.1
2017-06-27T14:07:54.110Z,1004.1
2017-06-27T14:08:55.487Z,1004.1
2017-06-27T14:09:56.853Z,1004.1
2017-06-27T14:10:58.231Z,1004.1
2017-06-27T14:11:59.606Z,1004.0
2017-06-27T14:13:01.510Z,1004.0
2017-06-27T14:14:02.893Z,1004.1
2017-06-27T14:15:04.267Z,1004.1
2017-06-27T14:16:05.654Z,1004.0
2017-06-27T14:17:07.037Z,1004.1
2017-06-27T14:18:08.412Z,1004.0
2017-06-27T14:19:09.786Z,1004.0
2017-06-27T14:20:11.151Z,1004.0
2017-06-27T14:21:12.696Z,1004.0
2017-06-27T14:22:14.071Z,1003.9
2017-06-27T14:23:15.449Z,1003.9
2017-06-27T14:24:16.830Z,1003.9
2017-06-27T14:25:18.927Z,1003.9
2017-06-27T14:26:20.302Z,1003.9
2017-06-27T14:27:21.682Z,1003.9
2017-06-27T14:28:23.061Z,1003.9
2017-06-27T14:29:24.445Z,1003.9
2017-06-27T14:30:25.826Z,1003.9
2017-06-27T14:31:27.201Z,1003.9
2017-06-27T14:32:29.546Z,1003.9
2017-06-27T14:33:32.661Z,1003.9
2017-06-27T14:34:34.032Z,1003.9
2017-06-27T14:35:35.434Z,1003.9
2017-06-27T14:36:36.813Z,1003.9
2017-06-27T14:37:38.190Z,1003.9
2017-06-27T14:38:39.566Z,1003.9
2017-06-27T14:39:40.953Z,1003.8
2017-06-27T14:40:43.183Z,1003.8
2017-06-27T14:41:44.564Z,1003.8
2017-06-27T14:42:45.931Z,1003.8
2017-06-27T14:43:47.320Z,1003.8
2017-06-27T14:44:48.688Z,1003.7
2017-06-27T14:45:50.069Z,1003.7
2017-06-27T14:46:51.449Z,1003.7
2017-06-27T14:47:52.833Z,1003.7
2017-06-27T14:48:54.846Z,1003.7
2017-06-27T14:49:56.221Z,1003.7
2017-06-27T14:50:57.610Z,1003.7
2017-06-27T14:51:58.987Z,1003.6
2017-06-27T14:53:00.358Z,1003.6
2017-06-27T14:54:01.738Z,1003.6
2017-06-27T14:55:03.144Z,1003.6
2017-06-27T14:56:04.511Z,1003.6
2017-06-27T14:57:06.504Z,1003.6
2017-06-27T14:58:07.896Z,1003.6
2017-06-27T14:59:09.256Z,1003.5
2017-06-27T15:00:10.638Z,1003.5
2017-06-27T15:01:12.022Z,1003.4
2017-06-27T15:02:13.399Z,1003.5
2017-06-27T15:03:14.775Z,1003.4
2017-06-27T15:04:16.150Z,1003.5
2017-06-27T15:05:17.527Z,1003.4
2017-06-27T15:06:18.904Z,1003.4
2017-06-27T15:07:21.652Z,1003.4
2017-06-27T15:08:23.919Z,1003.4
2017-06-27T15:09:26.259Z,1003.4
2017-06-27T15:10:27.633Z,1003.4
2017-06-27T15:11:29.005Z,1003.3
2017-06-27T15:12:30.393Z,1003.3
2017-06-27T15:13:31.768Z,1003.3
2017-06-27T15:14:34.062Z,1003.3
2017-06-27T15:15:35.436Z,1003.3
2017-06-27T15:16:36.819Z,1003.2
2017-06-27T15:17:38.193Z,1003.2
2017-06-27T15:18:39.570Z,1003.3
2017-06-27T15:19:40.943Z,1003.3
2017-06-27T15:20:42.328Z,1003.3
2017-06-27T15:21:43.699Z,1003.3
2017-06-27T15:22:45.074Z,1003.3
2017-06-27T15:23:46.443Z,1003.3
2017-06-27T15:24:47.819Z,1003.3
2017-06-27T15:25:49.194Z,1003.3
2017-06-27T15:26:50.570Z,1003.3
2017-06-27T15:27:53.160Z,1003.3
2017-06-27T15:28:54.526Z,1003.3
2017-06-27T15:29:55.908Z,1003.3
2017-06-27T15:30:57.284Z,1003.2
2017-06-27T15:31:58.679Z,1003.2
2017-06-27T15:33:00.053Z,1003.2
2017-06-27T15:34:01.429Z,1003.1
2017-06-27T15:35:03.368Z,1003.1
2017-06-27T15:36:04.746Z,1003.0
2017-06-27T15:37:06.118Z,1003.1
2017-06-27T15:38:07.494Z,1003.0
2017-06-27T15:39:08.870Z,1003.0
2017-06-27T15:40:10.249Z,1003.0
2017-06-27T15:41:11.657Z,1003.0
2017-06-27T15:42:13.038Z,1003.0
2017-06-27T15:43:14.419Z,1002.9
2017-06-27T15:44:15.792Z,1002.9
2017-06-27T15:45:17.168Z,1002.8
2017-06-27T15:46:18.545Z,1002.8
2017-06-27T15:47:19.969Z,1002.8
2017-06-27T15:48:21.349Z,1002.8
2017-06-27T15:49:22.717Z,1002.8
2017-06-27T15:50:24.088Z,1002.8
2017-06-27T15:51:26.380Z,1002.8
2017-06-27T15:52:27.747Z,1002.7
2017-06-27T15:53:29.123Z,1002.7
2017-06-27T15:54:31.394Z,1002.6
2017-06-27T15:55:33.728Z,1002.7
2017-06-27T15:56:36.076Z,1002.6
2017-06-27T15:57:39.207Z,1002.6
2017-06-27T15:58:40.580Z,1002.6
2017-06-27T15:59:41.947Z,1002.6
2017-06-27T16:00:43.332Z,1002.5
2017-06-27T16:01:45.651Z,1002.5
2017-06-27T16:02:47.920Z,1002.6
2017-06-27T16:03:49.295Z,1002.5
2017-06-27T16:04:50.666Z,1002.5
2017-06-27T16:05:52.719Z,1002.5
2017-06-27T16:06:54.099Z,1002.5
2017-06-27T16:07:55.474Z,1002.5
2017-06-27T16:08:56.848Z,1002.5
2017-06-27T16:09:58.227Z,1002.4
2017-06-27T16:10:59.600Z,1002.4
2017-06-27T16:12:00.973Z,1002.4
2017-06-27T16:13:02.343Z,1002.4
2017-06-27T16:14:03.720Z,1002.4
2017-06-27T16:15:05.125Z,1002.4
2017-06-27T16:16:06.524Z,1002.4
2017-06-27T16:17:07.914Z,1002.4
2017-06-27T16:18:09.292Z,1002.4
2017-06-27T16:19:10.666Z,1002.3
2017-06-27T16:20:12.039Z,1002.3
2017-06-27T16:21:13.423Z,1002.3
2017-06-27T16:22:14.795Z,1002.2
2017-06-27T16:23:16.172Z,1002.2
2017-06-27T16:24:17.553Z,1002.2
2017-06-27T16:25:18.927Z,1002.2
2017-06-27T16:26:20.303Z,1002.2
2017-06-27T16:27:21.674Z,1002.2
2017-06-27T16:28:23.056Z,1002.2
2017-06-27T16:29:24.428Z,1002.2
2017-06-27T16:30:25.806Z,1002.1
2017-06-27T16:31:27.185Z,1002.2
2017-06-27T16:32:28.558Z,1002.1
2017-06-27T16:33:29.932Z,1002.1
2017-06-27T16:34:31.306Z,1002.1
2017-06-27T16:35:32.684Z,1002.1
2017-06-27T16:36:34.056Z,1002.1
2017-06-27T16:37:35.433Z,1002.0
2017-06-27T16:38:36.804Z,1002.0
2017-06-27T16:39:38.182Z,1002.0
2017-06-27T16:40:39.551Z,1002.1
2017-06-27T16:41:40.922Z,1002.0
2017-06-27T16:42:42.307Z,1002.0
2017-06-27T16:43:43.675Z,1002.0
2017-06-27T16:44:45.058Z,1002.0
2017-06-27T16:45:46.430Z,1002.0
2017-06-27T16:46:47.810Z,1002.0
2017-06-27T16:47:49.179Z,1002.0
2017-06-27T16:48:50.557Z,1001.9
2017-06-27T16:49:51.941Z,1001.9
2017-06-27T16:50:54.009Z,1001.9
2017-06-27T16:51:55.385Z,1001.9
2017-06-27T16:52:56.770Z,1001.9
2017-06-27T16:53:58.145Z,1001.9
2017-06-27T16:54:59.521Z,1001.8
2017-06-27T16:56:01.649Z,1001.8
2017-06-27T16:57:03.024Z,1001.8
2017-06-27T16:58:04.398Z,1001.8
2017-06-27T16:59:05.791Z,1001.8
2017-06-27T17:00:07.170Z,1001.8
2017-06-27T17:01:08.545Z,1001.7
2017-06-27T17:02:09.915Z,1001.7
2017-06-27T17:03:11.292Z,1001.7
2017-06-27T17:04:12.667Z,1001.8
2017-06-27T17:05:14.041Z,1001.7
2017-06-27T17:06:15.420Z,1001.8
2017-06-27T17:07:16.796Z,1001.8
2017-06-27T17:08:18.180Z,1001.8
2017-06-27T17:09:19.571Z,1001.8
2017-06-27T17:10:20.921Z,1001.7
2017-06-27T17:11:22.299Z,1001.7
2017-06-27T17:12:24.353Z,1001.7
2017-06-27T17:13:25.723Z,1001.7
2017-06-27T17:14:27.104Z,1001.7
2017-06-27T17:15:28.479Z,1001.7
2017-06-27T17:16:29.853Z,1001.7
2017-06-27T17:17:31.224Z,1001.7
2017-06-27T17:18:32.598Z,1001.7
2017-06-27T17:19:33.976Z,1001.6
2017-06-27T17:20:35.346Z,1001.6
2017-06-27T17:21:36.717Z,1001.6
2017-06-27T17:22:38.614Z,1001.5
2017-06-27T17:23:39.439Z,1001.6
2017-06-27T17:24:40.813Z,1001.5
2017-06-27T17:25:42.184Z,1001.5
2017-06-27T17:26:43.555Z,1001.5
2017-06-27T17:27:44.941Z,1001.5
2017-06-27T17:28:46.320Z,1001.4
2017-06-27T17:29:47.687Z,1001.4
2017-06-27T17:30:49.085Z,1001.4
2017-06-27T17:31:50.461Z,1001.3
2017-06-27T17:32:51.830Z,1001.4
2017-06-27T17:33:53.209Z,1001.3
2017-06-27T17:34:54.581Z,1001.3
2017-06-27T17:35:55.956Z,1001.3
2017-06-27T17:36:58.189Z,1001.4
2017-06-27T17:37:59.568Z,1001.3
2017-06-27T17:39:00.941Z,1001.3
2017-06-27T17:40:02.329Z,1001.3
2017-06-27T17:41:03.704Z,1001.3
2017-06-27T17:42:05.125Z,1001.3
2017-06-27T17:43:06.501Z,1001.3
2017-06-27T17:44:09.331Z,1001.2
2017-06-27T17:45:10.705Z,1001.2
2017-06-27T17:46:12.076Z,1001.2
2017-06-27T17:47:13.451Z,1001.1
2017-06-27T17:48:15.767Z,1001.1
2017-06-27T17:49:18.123Z,1001.1
2017-06-27T17:50:18.466Z,1001.1
2017-06-27T17:51:19.843Z,1001.1
2017-06-27T17:52:21.208Z,1001.1
2017-06-27T17:53:23.522Z,1001.0
2017-06-27T17:54:24.890Z,1001.0
2017-06-27T17:55:26.268Z,1001.0
2017-06-27T17:56:27.677Z,1001.0
2017-06-27T17:57:29.057Z,1001.0
2017-06-27T17:58:30.433Z,1001.0
2017-06-27T17:59:32.485Z,1001.0
2017-06-27T18:00:33.865Z,1001.0
2017-06-27T18:01:35.234Z,1001.0
2017-06-27T18:02:36.603Z,1001.0
2017-06-27T18:03:37.983Z,1001.0
2017-06-27T18:04:39.365Z,1001.0
2017-06-27T18:05:40.733Z,1001.0
2017-06-27T18:06:42.106Z,1001.0
2017-06-27T18:07:43.475Z,1001.0
2017-06-27T18:08:44.851Z,1001.0
2017-06-27T18:09:46.231Z,1001.0
2017-06-27T18:10:47.606Z,1001.0
2017-06-27T18:11:49.507Z,1000.9
2017-06-27T18:12:50.884Z,1000.9
2017-06-27T18:13:52.260Z,1000.9
2017-06-27T18:14:53.630Z,1000.9
2017-06-27T18:15:55.004Z,1000.9
2017-06-27T18:16:56.376Z,1000.9
2017-06-27T18:17:57.749Z,1000.8
2017-06-27T18:18:59.127Z,1000.8
2017-06-27T18:20:00.494Z,1000.7
2017-06-27T18:21:01.866Z,1000.7
2017-06-27T18:22:03.230Z,1000.7
2017-06-27T18:23:04.607Z,1000.7
2017-06-27T18:24:05.988Z,1000.7
2017-06-27T18:25:07.355Z,1000.7
2017-06-27T18:26:08.729Z,1000.6
2017-06-27T18:27:10.633Z,1000.6
2017-06-27T18:28:11.429Z,1000.6
2017-06-27T18:29:12.808Z,1000.6
2017-06-27T18:30:14.194Z,1000.5
2017-06-27T18:31:15.566Z,1000.6
2017-06-27T18:32:16.939Z,1000.5
2017-06-27T18:33:18.316Z,1000.6
2017-06-27T18:34:19.687Z,1000.5
2017-06-27T18:35:21.063Z,1000.5
2017-06-27T18:36:22.441Z,1000.5
2017-06-27T18:37:23.817Z,1000.5
2017-06-27T18:38:25.192Z,1000.5
2017-06-27T18:39:26.570Z,1000.5
2017-06-27T18:40:27.945Z,1000.5
2017-06-27T18:41:29.325Z,1000.5
2017-06-27T18:42:30.696Z,1000.4
2017-06-27T18:43:32.077Z,1000.4
2017-06-27T18:44:33.451Z,1000.4
2017-06-27T18:45:34.826Z,1000.4
2017-06-27T18:46:36.209Z,1000.4
2017-06-27T18:47:37.584Z,1000.3
2017-06-27T18:48:38.962Z,1000.4
2017-06-27T18:49:40.331Z,1000.4
2017-06-27T18:50:42.679Z,1000.5
2017-06-27T18:51:44.056Z,1000.5
2017-06-27T18:52:45.997Z,1000.6
2017-06-27T18:53:47.366Z,1000.5
2017-06-27T18:54:48.830Z,1000.5
2017-06-27T18:55:50.227Z,1000.6
2017-06-27T18:56:51.600Z,1000.5
2017-06-27T18:57:53.196Z,1000.5
2017-06-27T18:58:54.575Z,1000.6
2017-06-27T18:59:55.978Z,1000.5
2017-06-27T19:00:57.641Z,1000.6
2017-06-27T19:01:59.293Z,1000.6
2017-06-27T19:03:00.808Z,1000.6
2017-06-27T19:04:02.481Z,1000.6
2017-06-27T19:05:04.013Z,1000.5
2017-06-27T19:06:05.472Z,1000.5
2017-06-27T19:07:06.881Z,1000.6
2017-06-27T19:08:08.272Z,1000.6
2017-06-27T19:09:09.978Z,1000.6
2017-06-27T19:10:11.379Z,1000.6
2017-06-27T19:11:13.068Z,1000.6
2017-06-27T19:12:14.720Z,1000.6
2017-06-27T19:13:16.247Z,1000.6
2017-06-27T19:14:18.753Z,1000.6
2017-06-27T19:15:20.427Z,1000.6
2017-06-27T19:16:22.158Z,1000.6
2017-06-27T19:17:23.899Z,1000.6
2017-06-27T19:18:25.611Z,1000.6
2017-06-27T19:19:27.254Z,1000.6
2017-06-27T19:20:28.932Z,1000.6
2017-06-27T19:21:30.546Z,1000.6
2017-06-27T19:22:32.075Z,1000.6
2017-06-27T19:23:33.695Z,1000.6
2017-06-27T19:24:35.363Z,1000.6
2017-06-27T19:25:37.855Z,1000.6
2017-06-27T19:26:39.330Z,1000.5
2017-06-27T19:27:40.948Z,1000.5
2017-06-27T19:28:42.591Z,1000.5
2017-06-27T19:29:44.166Z,1000.5
2017-06-27T19:30:45.906Z,1000.5
2017-06-27T19:31:47.555Z,1000.5
2017-06-27T19:32:49.060Z,1000.5
2017-06-27T19:33:50.630Z,1000.5
2017-06-27T19:34:52.332Z,1000.5
2017-06-27T19:35:54.057Z,1000.5
2017-06-27T19:36:55.751Z,1000.5
2017-06-27T19:37:57.411Z,1000.5
2017-06-27T19:38:59.578Z,1000.5
2017-06-27T19:40:00.954Z,1000.5
2017-06-27T19:41:02.343Z,1000.4
2017-06-27T19:42:03.757Z,1000.4
2017-06-27T19:43:05.174Z,1000.4
2017-06-27T19:44:06.857Z,1000.4
2017-06-27T19:45:08.439Z,1000.3
2017-06-27T19:46:10.079Z,1000.3
2017-06-27T19:47:12.163Z,1000.3
2017-06-27T19:48:13.850Z,1000.4
2017-06-27T19:49:15.476Z,1000.4
2017-06-27T19:50:17.174Z,1000.4
2017-06-27T19:51:18.855Z,1000.4
2017-06-27T19:52:20.500Z,1000.4
2017-06-27T19:53:22.193Z,1000.3
2017-06-27T19:54:23.869Z,1000.3
2017-06-27T19:55:25.547Z,1000.3
2017-06-27T19:56:27.251Z,1000.3
2017-06-27T19:57:29.793Z,1000.2
2017-06-27T19:58:31.493Z,1000.2
2017-06-27T19:59:33.230Z,1000.2
2017-06-27T20:00:34.918Z,1000.2
2017-06-27T20:01:36.607Z,1000.2
2017-06-27T20:02:38.271Z,1000.2
2017-06-27T20:03:39.865Z,1000.1
2017-06-27T20:04:41.576Z,1000.1
2017-06-27T20:05:43.207Z,1000.1
2017-06-27T20:06:44.872Z,1000.1
2017-06-27T20:07:46.368Z,1000.1
2017-06-27T20:08:48.062Z,1000.1
2017-06-27T20:09:49.640Z,1000.1
2017-06-27T20:10:51.334Z,1000.1
2017-06-27T20:11:53.014Z,1000.1
2017-06-27T20:12:54.555Z,1000.1
2017-06-27T20:13:56.163Z,1000.1
2017-06-27T20:14:57.900Z,1000.1
2017-06-27T20:15:59.302Z,1000.1
2017-06-27T20:17:00.836Z,1000.1
2017-06-27T20:18:02.300Z,1000.1
2017-06-27T20:19:04.736Z,1000.0
2017-06-27T20:20:06.522Z,1000.0
2017-06-27T20:21:08.213Z,1000.0